Nissos Mykonos — SYJZ — position and weather

sailwx.info

Track history (hours):
 
Tides and Currents Weather Stations Pressure Air Temp Water Temp Dewpoint Dewpoint Depression Visibility Wind Speed Wind Dir Waves Ship Positions

Nissos Mykonos

Last reported at 2014-Jul-25 10:33 UTC. Time now 2014-Jul-25 11:25 UTC.
Position N 37°32' E 025°26'.

Length 141 m; draft 5.6 m.

Type: Passenger vessel. MMSI: 240389000.

Date/timePositionNaut miles runAvg speedWind from/ knotsBaromVisibWave heightAir tempDewpointWater temp
2014-Jul-25 10:33N 37°32' E 025°26'1211.3
2014-Jul-25 09:31N 37°27' E 025°12'1210.5
2014-Jul-25 08:23N 37°28' E 024°57'2423.4
2014-Jul-25 07:21N 37°31' E 024°27'4223.3
2014-Jul-25 05:34N 37°48' E 023°39'5 0.6
2014-Jul-24 22:04N 37°53' E 023°39'4222.5
2014-Jul-24 20:12N 37°31' E 024°24'1625.1
2014-Jul-24 19:34N 37°31' E 024°44'1111.1
2014-Jul-24 18:32N 37°26' E 024°57'1818.2
2014-Jul-24 17:33N 37°28' E 025°19'1817.6
2014-Jul-24 16:32N 37°34' E 025°41'4119.1
2014-Jul-24 14:25N 37°45' E 026°30'5312.8
2014-Jul-24 10:19N 37°32' E 025°26'7 8.8
2014-Jul-24 09:33N 37°28' E 025°19'1814.4
2014-Jul-24 08:19N 37°30' E 024°57'2224.3
2014-Jul-24 07:24N 37°31' E 024°29'4323.3
2014-Jul-24 05:34N 37°48' E 023°39'9 9.1
2014-Jul-24 04:33N 37°57' E 023°38'0 0.0
2014-Jul-24 03:33N 37°57' E 023°38'0 0.0
2014-Jul-24 02:33N 37°57' E 023°38'0 0.0
2014-Jul-24 01:33N 37°57' E 023°38'0 0.0
2014-Jul-24 00:33N 37°57' E 023°38'0 0.0
2014-Jul-23 23:33N 37°57' E 023°38'0 0.0
2014-Jul-23 22:33N 37°57' E 023°38'2317.5
2014-Jul-23 21:15N 37°38' E 023°54'2023.8
2014-Jul-23 20:24N 37°31' E 024°18'2124.6
2014-Jul-23 19:34N 37°31' E 024°44'1111.0
2014-Jul-23 18:33N 37°26' E 024°57'1817.9
2014-Jul-23 17:33N 37°28' E 025°19'10 1.4
2014-Jul-23 10:29N 37°32' E 025°30'1010.4
2014-Jul-23 09:32N 37°27' E 025°19'1817.1
2014-Jul-23 08:29N 37°26' E 024°57'2021.1
2014-Jul-23 07:31N 37°32' E 024°32'4523.1
2014-Jul-23 05:33N 37°48' E 023°39'9 1.8
2014-Jul-23 00:33N 37°57' E 023°38'0 0.0
2014-Jul-22 23:33N 37°57' E 023°38'0 0.0
2014-Jul-22 22:33N 37°57' E 023°38'0 0.0
2014-Jul-22 21:33N 37°57' E 023°38'0 0.0
2014-Jul-22 20:33N 37°57' E 023°38'4 4.5
2014-Jul-22 19:34N 37°52' E 023°39'2423.7
2014-Jul-22 18:33N 37°36' E 024°01'2524.5
2014-Jul-22 17:32N 37°31' E 024°32'2019.9
2014-Jul-22 16:31N 37°26' E 024°57'1414.2
2014-Jul-22 15:34N 37°27' E 025°14'1312.7
2014-Jul-22 14:33N 37°31' E 025°29'2525.2
2014-Jul-22 13:33N 37°30' E 026°00'24 8.0
2014-Jul-22 10:34N 37°31' E 025°30'10 9.4
2014-Jul-22 09:33N 37°28' E 025°19'1817.8
2014-Jul-22 08:32N 37°26' E 024°57'1919.1
2014-Jul-22 07:34N 37°31' E 024°34'2724.9
2014-Jul-22 06:29N 37°35' E 024°00'2223.1
2014-Jul-22 05:33N 37°48' E 023°38'9 8.9
2014-Jul-22 04:33N 37°57' E 023°38'0 0.0
2014-Jul-22 03:33N 37°57' E 023°38'0 0.0
2014-Jul-22 02:33N 37°57' E 023°38'0 0.0
2014-Jul-22 01:33N 37°57' E 023°38'0 0.0
2014-Jul-22 00:33N 37°57' E 023°38'0 0.0
2014-Jul-21 23:33N 37°57' E 023°38'0 0.0
2014-Jul-21 22:33N 37°57' E 023°38'1615.9
2014-Jul-21 21:33N 37°41' E 023°45'3324.5
2014-Jul-21 20:13N 37°31' E 024°24'1725.1
2014-Jul-21 19:33N 37°31' E 024°45'1311.5
2014-Jul-21 18:23N 37°27' E 025°01'1517.3
2014-Jul-21 17:33N 37°28' E 025°19'2319.1
2014-Jul-21 16:21N 37°38' E 025°45'3318.3
2014-Jul-21 14:33N 37°44' E 026°26'24 7.9
2014-Jul-21 11:32N 37°39' E 025°56'2922.4
2014-Jul-21 10:15N 37°32' E 025°21'5 7.6
2014-Jul-21 09:33N 37°28' E 025°18'1717.1
2014-Jul-21 08:33N 37°26' E 024°57'6621.9
2014-Jul-21 05:33N 37°48' E 023°38'7 1.0
2014-Jul-20 22:16N 37°55' E 023°37'4621.6
2014-Jul-20 20:09N 37°32' E 024°27'2424.6
2014-Jul-20 19:10N 37°30' E 024°57'5 6.6
2014-Jul-20 18:26N 37°28' E 025°02'1315.5
2014-Jul-20 17:33N 37°28' E 025°19'2019.6
2014-Jul-20 16:34N 37°40' E 025°39'2717.8
2014-Jul-20 15:04N 37°39' E 026°13'41 8.5
2014-Jul-20 10:16N 37°32' E 025°22'5 7.4
2014-Jul-20 09:33N 37°28' E 025°18'1715.9
2014-Jul-20 08:30N 37°26' E 024°57'2220.9
2014-Jul-20 07:28N 37°31' E 024°30'0 0.0
2014-Jul-19 17:34N 37°31' E 024°31'2120.8
2014-Jul-19 16:33N 37°26' E 024°57'1414.3
2014-Jul-19 15:34N 37°28' E 025°14'1211.6
2014-Jul-19 14:32N 37°32' E 025°28'2424.7
2014-Jul-19 13:33N 37°37' E 025°58'3 1.5
2014-Jul-19 11:33N 37°39' E 026°02'2524.5
2014-Jul-19 10:31N 37°34' E 025°30'1211.7
2014-Jul-19 09:32N 37°27' E 025°18'1714.6
2014-Jul-19 08:24N 37°29' E 024°57'2023.5
2014-Jul-19 07:33N 37°31' E 024°33'2824.3
2014-Jul-19 06:23N 37°35' E 023°57'1923.1
2014-Jul-19 05:33N 37°48' E 023°39'9 9.0
2014-Jul-19 04:34N 37°57' E 023°38'0 0.0
2014-Jul-19 03:34N 37°57' E 023°38'0 0.0
2014-Jul-19 02:34N 37°57' E 023°38'0 0.0
2014-Jul-19 01:34N 37°57' E 023°38'0 0.0
2014-Jul-19 00:34N 37°57' E 023°38'0 0.0
2014-Jul-18 23:33N 37°57' E 023°38'0 0.0
2014-Jul-18 22:34N 37°57' E 023°38'1615.9
2014-Jul-18 21:33N 37°42' E 023°45'3324.3
2014-Jul-18 20:11N 37°31' E 024°25'1624.7
2014-Jul-18 19:34N 37°31' E 024°44'1110.8
2014-Jul-18 18:32N 37°26' E 024°57'1818.4
2014-Jul-18 17:33N 37°28' E 025°19'1917.9
2014-Jul-18 16:30N 37°34' E 025°42'2518.9
2014-Jul-18 15:11N 37°39' E 026°12'1824.2
2014-Jul-18 14:26N 37°46' E 026°34'6 7.0
2014-Jul-18 13:33N 37°48' E 026°41'4118.7
2014-Jul-18 11:22N 37°37' E 025°51'1922.2
2014-Jul-18 10:31N 37°33' E 025°28'1111.1
2014-Jul-18 09:33N 37°28' E 025°16'1615.8
2014-Jul-18 08:33N 37°26' E 024°57'2420.2
2014-Jul-18 07:23N 37°31' E 024°27'4223.1
2014-Jul-18 05:33N 37°48' E 023°39'8 1.7
2014-Jul-18 00:33N 37°57' E 023°38'0 0.0
2014-Jul-17 23:33N 37°57' E 023°38'0 0.0
2014-Jul-17 22:33N 37°57' E 023°38'5819.4
2014-Jul-17 19:33N 37°31' E 024°44'1110.7
2014-Jul-17 18:30N 37°26' E 024°57'1818.7
2014-Jul-17 17:33N 37°28' E 025°19'1716.6
2014-Jul-17 16:33N 37°34' E 025°39'11 1.8
2014-Jul-17 10:22N 37°32' E 025°25'8 9.2
2014-Jul-17 09:32N 37°27' E 025°18'1614.8
2014-Jul-17 08:26N 37°27' E 024°57'6622.9
2014-Jul-17 05:33N 37°48' E 023°38'9 8.7
2014-Jul-17 04:34N 37°57' E 023°38'0 0.0
2014-Jul-17 03:33N 37°57' E 023°38'0 0.0
2014-Jul-17 02:34N 37°57' E 023°38'0 0.0
2014-Jul-17 01:33N 37°57' E 023°38'0 0.0
2014-Jul-17 00:34N 37°57' E 023°38'0 0.0
2014-Jul-16 23:34N 37°57' E 023°38'0 0.0
2014-Jul-16 22:34N 37°57' E 023°38'1615.6
2014-Jul-16 21:33N 37°42' E 023°45'3224.5
2014-Jul-16 20:15N 37°31' E 024°23'2024.9
2014-Jul-16 19:25N 37°31' E 024°49'1210.7
2014-Jul-16 18:19N 37°27' E 025°03'1316.1
2014-Jul-16 17:30N 37°28' E 025°19'10 1.4
2014-Jul-16 10:29N 37°34' E 025°28'1010.9
2014-Jul-16 09:32N 37°27' E 025°18'1716.8
2014-Jul-16 08:31N 37°26' E 024°57'6522.1
2014-Jul-16 05:33N 37°48' E 023°39'9 8.9
2014-Jul-16 04:33N 37°57' E 023°38'0 0.0
2014-Jul-16 03:33N 37°57' E 023°38'0 0.0
2014-Jul-16 02:33N 37°57' E 023°38'0 0.0
2014-Jul-16 01:33N 37°57' E 023°38'0 0.0
2014-Jul-16 00:33N 37°57' E 023°38'0 0.0
2014-Jul-15 23:32N 37°57' E 023°38'0 0.0
2014-Jul-15 22:33N 37°57' E 023°38'0 0.0
2014-Jul-15 21:33N 37°57' E 023°38'0 0.0
2014-Jul-15 20:33N 37°57' E 023°38'4 4.2
2014-Jul-15 19:34N 37°52' E 023°39'5123.2
2014-Jul-15 17:22N 37°31' E 024°37'1620.2
2014-Jul-15 16:33N 37°26' E 024°57'1414.4
2014-Jul-15 15:34N 37°28' E 025°15'1211.7
2014-Jul-15 14:33N 37°31' E 025°29'2524.9
2014-Jul-15 13:32N 37°30' E 026°01'1511.2
2014-Jul-15 12:10N 37°37' E 026°18'1521.7
2014-Jul-15 11:30N 37°30' E 026°02'  
Track history (hours):
 
Tides and Currents Weather Stations Pressure Air Temp Water Temp Dewpoint Dewpoint Depression Visibility Wind Speed Wind Dir Waves Ship Positions

Nissos Mykonos

Last reported at 2014-Jul-25 10:33 UTC. Time now 2014-Jul-25 11:25 UTC.
Position N 37°32' E 025°26'.

Length 141 m; draft 5.6 m.

Type: Passenger vessel. MMSI: 240389000.

Date/timePositionNaut miles runAvg speedWind from/ knotsBaromVisibWave heightAir tempDewpointWater temp
2014-Jul-25 10:33N 37°32' E 025°26'1211.3
2014-Jul-25 09:31N 37°27' E 025°12'1210.5
2014-Jul-25 08:23N 37°28' E 024°57'2423.4
2014-Jul-25 07:21N 37°31' E 024°27'4223.3
2014-Jul-25 05:34N 37°48' E 023°39'5 0.6
2014-Jul-24 22:04N 37°53' E 023°39'4222.5
2014-Jul-24 20:12N 37°31' E 024°24'1625.1
2014-Jul-24 19:34N 37°31' E 024°44'1111.1
2014-Jul-24 18:32N 37°26' E 024°57'1818.2
2014-Jul-24 17:33N 37°28' E 025°19'1817.6
2014-Jul-24 16:32N 37°34' E 025°41'4119.1
2014-Jul-24 14:25N 37°45' E 026°30'5312.8
2014-Jul-24 10:19N 37°32' E 025°26'7 8.8
2014-Jul-24 09:33N 37°28' E 025°19'1814.4
2014-Jul-24 08:19N 37°30' E 024°57'2224.3
2014-Jul-24 07:24N 37°31' E 024°29'4323.3
2014-Jul-24 05:34N 37°48' E 023°39'9 9.1
2014-Jul-24 04:33N 37°57' E 023°38'0 0.0
2014-Jul-24 03:33N 37°57' E 023°38'0 0.0
2014-Jul-24 02:33N 37°57' E 023°38'0 0.0
2014-Jul-24 01:33N 37°57' E 023°38'0 0.0
2014-Jul-24 00:33N 37°57' E 023°38'0 0.0
2014-Jul-23 23:33N 37°57' E 023°38'0 0.0
2014-Jul-23 22:33N 37°57' E 023°38'2317.5
2014-Jul-23 21:15N 37°38' E 023°54'2023.8
2014-Jul-23 20:24N 37°31' E 024°18'2124.6
2014-Jul-23 19:34N 37°31' E 024°44'1111.0
2014-Jul-23 18:33N 37°26' E 024°57'1817.9
2014-Jul-23 17:33N 37°28' E 025°19'10 1.4
2014-Jul-23 10:29N 37°32' E 025°30'1010.4
2014-Jul-23 09:32N 37°27' E 025°19'1817.1
2014-Jul-23 08:29N 37°26' E 024°57'2021.1
2014-Jul-23 07:31N 37°32' E 024°32'4523.1
2014-Jul-23 05:33N 37°48' E 023°39'9 1.8
2014-Jul-23 00:33N 37°57' E 023°38'0 0.0
2014-Jul-22 23:33N 37°57' E 023°38'0 0.0
2014-Jul-22 22:33N 37°57' E 023°38'0 0.0
2014-Jul-22 21:33N 37°57' E 023°38'0 0.0
2014-Jul-22 20:33N 37°57' E 023°38'4 4.5
2014-Jul-22 19:34N 37°52' E 023°39'2423.7
2014-Jul-22 18:33N 37°36' E 024°01'2524.5
2014-Jul-22 17:32N 37°31' E 024°32'2019.9
2014-Jul-22 16:31N 37°26' E 024°57'1414.2
2014-Jul-22 15:34N 37°27' E 025°14'1312.7
2014-Jul-22 14:33N 37°31' E 025°29'2525.2
2014-Jul-22 13:33N 37°30' E 026°00'24 8.0
2014-Jul-22 10:34N 37°31' E 025°30'10 9.4
2014-Jul-22 09:33N 37°28' E 025°19'1817.8
2014-Jul-22 08:32N 37°26' E 024°57'1919.1
2014-Jul-22 07:34N 37°31' E 024°34'2724.9
2014-Jul-22 06:29N 37°35' E 024°00'2223.1
2014-Jul-22 05:33N 37°48' E 023°38'9 8.9
2014-Jul-22 04:33N 37°57' E 023°38'0 0.0
2014-Jul-22 03:33N 37°57' E 023°38'0 0.0
2014-Jul-22 02:33N 37°57' E 023°38'0 0.0
2014-Jul-22 01:33N 37°57' E 023°38'0 0.0
2014-Jul-22 00:33N 37°57' E 023°38'0 0.0
2014-Jul-21 23:33N 37°57' E 023°38'0 0.0
2014-Jul-21 22:33N 37°57' E 023°38'1615.9
2014-Jul-21 21:33N 37°41' E 023°45'3324.5
2014-Jul-21 20:13N 37°31' E 024°24'1725.1
2014-Jul-21 19:33N 37°31' E 024°45'1311.5
2014-Jul-21 18:23N 37°27' E 025°01'1517.3
2014-Jul-21 17:33N 37°28' E 025°19'2319.1
2014-Jul-21 16:21N 37°38' E 025°45'3318.3
2014-Jul-21 14:33N 37°44' E 026°26'24 7.9
2014-Jul-21 11:32N 37°39' E 025°56'2922.4
2014-Jul-21 10:15N 37°32' E 025°21'5 7.6
2014-Jul-21 09:33N 37°28' E 025°18'1717.1
2014-Jul-21 08:33N 37°26' E 024°57'6621.9
2014-Jul-21 05:33N 37°48' E 023°38'7 1.0
2014-Jul-20 22:16N 37°55' E 023°37'4621.6
2014-Jul-20 20:09N 37°32' E 024°27'2424.6
2014-Jul-20 19:10N 37°30' E 024°57'5 6.6
2014-Jul-20 18:26N 37°28' E 025°02'1315.5
2014-Jul-20 17:33N 37°28' E 025°19'2019.6
2014-Jul-20 16:34N 37°40' E 025°39'2717.8
2014-Jul-20 15:04N 37°39' E 026°13'41 8.5
2014-Jul-20 10:16N 37°32' E 025°22'5 7.4
2014-Jul-20 09:33N 37°28' E 025°18'1715.9
2014-Jul-20 08:30N 37°26' E 024°57'2220.9
2014-Jul-20 07:28N 37°31' E 024°30'0 0.0
2014-Jul-19 17:34N 37°31' E 024°31'2120.8
2014-Jul-19 16:33N 37°26' E 024°57'1414.3
2014-Jul-19 15:34N 37°28' E 025°14'1211.6
2014-Jul-19 14:32N 37°32' E 025°28'2424.7
2014-Jul-19 13:33N 37°37' E 025°58'3 1.5
2014-Jul-19 11:33N 37°39' E 026°02'2524.5
2014-Jul-19 10:31N 37°34' E 025°30'1211.7
2014-Jul-19 09:32N 37°27' E 025°18'1714.6
2014-Jul-19 08:24N 37°29' E 024°57'2023.5
2014-Jul-19 07:33N 37°31' E 024°33'2824.3
2014-Jul-19 06:23N 37°35' E 023°57'1923.1
2014-Jul-19 05:33N 37°48' E 023°39'9 9.0
2014-Jul-19 04:34N 37°57' E 023°38'0 0.0
2014-Jul-19 03:34N 37°57' E 023°38'0 0.0
2014-Jul-19 02:34N 37°57' E 023°38'0 0.0
2014-Jul-19 01:34N 37°57' E 023°38'0 0.0
2014-Jul-19 00:34N 37°57' E 023°38'0 0.0
2014-Jul-18 23:33N 37°57' E 023°38'0 0.0
2014-Jul-18 22:34N 37°57' E 023°38'1615.9
2014-Jul-18 21:33N 37°42' E 023°45'3324.3
2014-Jul-18 20:11N 37°31' E 024°25'1624.7
2014-Jul-18 19:34N 37°31' E 024°44'1110.8
2014-Jul-18 18:32N 37°26' E 024°57'1818.4
2014-Jul-18 17:33N 37°28' E 025°19'1917.9
2014-Jul-18 16:30N 37°34' E 025°42'2518.9
2014-Jul-18 15:11N 37°39' E 026°12'1824.2
2014-Jul-18 14:26N 37°46' E 026°34'6 7.0
2014-Jul-18 13:33N 37°48' E 026°41'4118.7
2014-Jul-18 11:22N 37°37' E 025°51'1922.2
2014-Jul-18 10:31N 37°33' E 025°28'1111.1
2014-Jul-18 09:33N 37°28' E 025°16'1615.8
2014-Jul-18 08:33N 37°26' E 024°57'2420.2
2014-Jul-18 07:23N 37°31' E 024°27'4223.1
2014-Jul-18 05:33N 37°48' E 023°39'8 1.7
2014-Jul-18 00:33N 37°57' E 023°38'0 0.0
2014-Jul-17 23:33N 37°57' E 023°38'0 0.0
2014-Jul-17 22:33N 37°57' E 023°38'5819.4
2014-Jul-17 19:33N 37°31' E 024°44'1110.7
2014-Jul-17 18:30N 37°26' E 024°57'1818.7
2014-Jul-17 17:33N 37°28' E 025°19'1716.6
2014-Jul-17 16:33N 37°34' E 025°39'11 1.8
2014-Jul-17 10:22N 37°32' E 025°25'8 9.2
2014-Jul-17 09:32N 37°27' E 025°18'1614.8
2014-Jul-17 08:26N 37°27' E 024°57'6622.9
2014-Jul-17 05:33N 37°48' E 023°38'9 8.7
2014-Jul-17 04:34N 37°57' E 023°38'0 0.0
2014-Jul-17 03:33N 37°57' E 023°38'0 0.0
2014-Jul-17 02:34N 37°57' E 023°38'0 0.0
2014-Jul-17 01:33N 37°57' E 023°38'0 0.0
2014-Jul-17 00:34N 37°57' E 023°38'0 0.0
2014-Jul-16 23:34N 37°57' E 023°38'0 0.0
2014-Jul-16 22:34N 37°57' E 023°38'1615.6
2014-Jul-16 21:33N 37°42' E 023°45'3224.5
2014-Jul-16 20:15N 37°31' E 024°23'2024.9
2014-Jul-16 19:25N 37°31' E 024°49'1210.7
2014-Jul-16 18:19N 37°27' E 025°03'1316.1
2014-Jul-16 17:30N 37°28' E 025°19'10 1.4
2014-Jul-16 10:29N 37°34' E 025°28'1010.9
2014-Jul-16 09:32N 37°27' E 025°18'1716.8
2014-Jul-16 08:31N 37°26' E 024°57'6522.1
2014-Jul-16 05:33N 37°48' E 023°39'9 8.9
2014-Jul-16 04:33N 37°57' E 023°38'0 0.0
2014-Jul-16 03:33N 37°57' E 023°38'0 0.0
2014-Jul-16 02:33N 37°57' E 023°38'0 0.0
2014-Jul-16 01:33N 37°57' E 023°38'0 0.0
2014-Jul-16 00:33N 37°57' E 023°38'0 0.0
2014-Jul-15 23:32N 37°57' E 023°38'0 0.0
2014-Jul-15 22:33N 37°57' E 023°38'0 0.0
2014-Jul-15 21:33N 37°57' E 023°38'0 0.0
2014-Jul-15 20:33N 37°57' E 023°38'4 4.2
2014-Jul-15 19:34N 37°52' E 023°39'5123.2
2014-Jul-15 17:22N 37°31' E 024°37'1620.2
2014-Jul-15 16:33N 37°26' E 024°57'1414.4
2014-Jul-15 15:34N 37°28' E 025°15'1211.7
2014-Jul-15 14:33N 37°31' E 025°29'2524.9
2014-Jul-15 13:32N 37°30' E 026°01'1511.2
2014-Jul-15 12:10N 37°37' E 026°18'1521.7
2014-Jul-15 11:30N 37°30' E 026°02'  

Dump ship's entire track history